Time;durP1;ratioP1;P1;durP2;ratioP2;P2;SDS_P1;SDS_P2;PMS_P1;PMS_P2;Temp;Humidity;BMP_temperature;BMP_pressure;BME280_temperature;BME280_humidity;BME280_pressure;Samples;Min_cycle;Max_cycle;Signal;HPM_P1;HPM_P2
2021/05/02 00:00:15;;;;;;;5.03;2.40;;;6.60;99.90;;;;;;5024391;28;20741;-76
2021/05/02 00:02:41;;;;;;;6.43;3.00;;;6.60;99.90;;;;;;5023527;28;20209;-78
2021/05/02 00:05:09;;;;;;;5.30;2.70;;;6.50;99.90;;;;;;5024345;28;20218;-77
2021/05/02 00:07:36;;;;;;;5.60;2.43;;;6.50;99.90;;;;;;5023965;28;20680;-76
2021/05/02 00:10:05;;;;;;;4.27;2.43;;;6.50;99.90;;;;;;5023696;28;20203;-76
2021/05/02 00:12:32;;;;;;;5.47;2.57;;;6.50;99.90;;;;;;5023926;28;20669;-76
2021/05/02 00:14:59;;;;;;;6.37;2.40;;;6.50;99.90;;;;;;5024221;28;20206;-76
2021/05/02 00:17:26;;;;;;;4.10;2.20;;;6.50;99.90;;;;;;5024097;28;20239;-76
2021/05/02 00:19:52;;;;;;;5.20;2.20;;;6.50;99.90;;;;;;5023975;28;20800;-76
2021/05/02 00:22:20;;;;;;;4.93;2.50;;;6.50;99.90;;;;;;5030254;28;20867;-77
2021/05/02 00:24:48;;;;;;;5.47;3.03;;;6.40;99.90;;;;;;5044472;28;20211;-76
2021/05/02 00:27:14;;;;;;;4.03;2.30;;;6.40;99.90;;;;;;5044465;28;20618;-76
2021/05/02 00:29:43;;;;;;;6.23;2.70;;;6.30;99.90;;;;;;5043031;28;20744;-77
2021/05/02 00:32:10;;;;;;;5.30;2.30;;;6.30;99.90;;;;;;5038715;28;20207;-76
2021/05/02 00:34:38;;;;;;;3.60;2.63;;;6.40;99.90;;;;;;5023677;28;20202;-76
2021/05/02 00:37:05;;;;;;;3.87;2.23;;;6.30;99.90;;;;;;5023669;28;20207;-77
2021/05/02 00:39:33;;;;;;;2.93;2.20;;;6.30;99.90;;;;;;5024112;28;20260;-76
2021/05/02 00:42:03;;;;;;;4.43;2.80;;;6.30;99.90;;;;;;5024633;28;20290;-76
2021/05/02 00:44:33;;;;;;;4.40;2.50;;;6.20;99.90;;;;;;5023761;28;20206;-77
2021/05/02 00:47:10;;;;;;;4.63;2.30;;;6.20;99.90;;;;;;5024065;28;20306;-76
2021/05/02 00:49:39;;;;;;;3.70;2.20;;;6.10;99.90;;;;;;5023648;28;20206;-76
2021/05/02 00:52:13;;;;;;;3.40;2.23;;;6.10;99.90;;;;;;5023563;28;20238;-76
2021/05/02 00:54:45;;;;;;;3.43;2.27;;;6.10;99.90;;;;;;5023810;28;20207;-77
2021/05/02 00:57:15;;;;;;;5.20;2.57;;;6.10;99.90;;;;;;5023250;28;20210;-77
2021/05/02 00:59:49;;;;;;;3.53;2.13;;;6.10;99.90;;;;;;5023838;28;20260;-76
2021/05/02 01:02:17;;;;;;;3.50;2.07;;;6.10;99.90;;;;;;5023568;28;20215;-77
2021/05/02 01:04:45;;;;;;;3.47;2.10;;;6.00;99.90;;;;;;5024270;28;20235;-76
2021/05/02 01:07:17;;;;;;;6.50;2.30;;;6.00;99.90;;;;;;5024919;28;20227;-76
2021/05/02 01:09:44;;;;;;;4.00;2.20;;;5.90;99.90;;;;;;5030179;28;20343;-76
2021/05/02 01:12:13;;;;;;;5.50;2.10;;;5.90;99.90;;;;;;5035620;28;20234;-76
2021/05/02 01:14:44;;;;;;;5.63;2.20;;;5.90;99.90;;;;;;5033357;28;20203;-76
2021/05/02 01:17:13;;;;;;;3.60;2.40;;;5.90;99.90;;;;;;5034746;28;20233;-76
2021/05/02 01:19:41;;;;;;;3.90;2.00;;;5.90;99.90;;;;;;5023073;28;20217;-76
2021/05/02 01:22:13;;;;;;;5.80;1.90;;;5.90;99.90;;;;;;5023865;28;20494;-76
2021/05/02 01:24:44;;;;;;;5.90;2.10;;;5.90;99.90;;;;;;5023888;28;20611;-76
2021/05/02 01:27:28;;;;;;;4.53;2.30;;;5.90;99.90;;;;;;5023111;28;20218;-76
2021/05/02 01:29:55;;;;;;;4.60;2.47;;;5.80;99.90;;;;;;5022984;28;20225;-76
2021/05/02 01:32:23;;;;;;;3.93;2.37;;;5.80;99.90;;;;;;5022799;28;20899;-77
2021/05/02 01:34:49;;;;;;;5.67;3.87;;;5.80;99.90;;;;;;5022897;28;20267;-77
2021/05/02 01:37:16;;;;;;;4.07;2.10;;;5.80;99.90;;;;;;5023138;28;20198;-77
2021/05/02 01:39:43;;;;;;;4.03;2.30;;;5.80;99.90;;;;;;5022137;28;20195;-77
2021/05/02 01:42:10;;;;;;;4.53;2.30;;;5.80;99.90;;;;;;5022900;28;20241;-77
2021/05/02 01:44:36;;;;;;;8.63;3.03;;;5.80;99.90;;;;;;5023088;28;20210;-77
2021/05/02 01:47:08;;;;;;;12.50;2.93;;;5.80;99.90;;;;;;5022224;28;20238;-76
2021/05/02 01:49:39;;;;;;;10.07;3.00;;;5.90;99.90;;;;;;5022451;28;20211;-76
2021/05/02 01:52:07;;;;;;;5.50;2.63;;;6.10;99.90;;;;;;5022737;28;20199;-77
2021/05/02 01:54:35;;;;;;;7.00;2.80;;;6.20;99.90;;;;;;5021738;28;20210;-76
2021/05/02 01:57:03;;;;;;;5.43;2.30;;;6.20;99.90;;;;;;5023093;28;20195;-76
2021/05/02 01:59:30;;;;;;;4.70;2.30;;;6.20;99.90;;;;;;5022977;28;20362;-77
2021/05/02 02:01:57;;;;;;;5.67;2.47;;;6.20;99.90;;;;;;5021877;28;20195;-77
2021/05/02 02:04:29;;;;;;;5.77;2.27;;;6.20;99.90;;;;;;5022852;28;20218;-77
2021/05/02 02:06:57;;;;;;;5.20;2.10;;;6.20;99.90;;;;;;5025763;28;20317;-77
2021/05/02 02:09:24;;;;;;;5.87;2.10;;;6.20;99.90;;;;;;5026330;28;20252;-76
2021/05/02 02:11:52;;;;;;;7.43;2.33;;;6.20;99.90;;;;;;5026446;28;20334;-76
2021/05/02 02:14:19;;;;;;;7.53;2.73;;;6.30;99.90;;;;;;5026400;28;20202;-76
2021/05/02 02:16:46;;;;;;;6.73;2.30;;;6.30;99.90;;;;;;5025580;28;20225;-76
2021/05/02 02:19:12;;;;;;;4.43;2.57;;;6.30;99.90;;;;;;5039340;28;20221;-76
2021/05/02 02:21:42;;;;;;;4.43;2.10;;;6.30;99.90;;;;;;5045483;28;20201;-76
2021/05/02 02:24:12;;;;;;;5.00;2.10;;;6.30;99.90;;;;;;5046615;28;20908;-75
2021/05/02 02:26:50;;;;;;;6.63;1.87;;;6.30;99.90;;;;;;5036783;28;20226;-77
2021/05/02 02:29:18;;;;;;;7.30;2.17;;;6.30;99.90;;;;;;5026038;28;20233;-75
2021/05/02 02:31:48;;;;;;;4.60;2.33;;;6.30;99.90;;;;;;5026413;28;20237;-76
2021/05/02 02:34:15;;;;;;;7.73;1.80;;;6.30;99.90;;;;;;5025889;28;20658;-76
2021/05/02 02:36:42;;;;;;;5.20;2.10;;;6.30;99.90;;;;;;5025886;28;20268;-77
2021/05/02 02:39:09;;;;;;;5.03;2.37;;;6.40;99.90;;;;;;5026745;28;20843;-77
2021/05/02 02:41:38;;;;;;;8.43;2.07;;;6.30;99.90;;;;;;5026183;28;20241;-76
2021/05/02 02:44:08;;;;;;;4.27;1.70;;;6.30;99.90;;;;;;5025992;28;20222;-76
2021/05/02 02:46:48;;;;;;;7.50;2.40;;;6.30;99.90;;;;;;5025799;28;20233;-76
2021/05/02 02:49:21;;;;;;;5.23;2.20;;;6.30;99.90;;;;;;5026520;28;20203;-76
2021/05/02 02:51:50;;;;;;;3.90;2.33;;;6.20;99.90;;;;;;5025918;28;20198;-76
2021/05/02 02:54:19;;;;;;;7.17;1.77;;;6.30;99.90;;;;;;5025766;28;20215;-76
2021/05/02 02:56:47;;;;;;;6.57;2.23;;;6.30;99.90;;;;;;5025709;28;20253;-74
2021/05/02 02:59:19;;;;;;;10.87;2.27;;;6.30;99.90;;;;;;5025968;28;20508;-75
2021/05/02 03:01:48;;;;;;;5.33;1.83;;;6.30;99.90;;;;;;5026134;28;20198;-76
2021/05/02 03:04:18;;;;;;;4.13;1.60;;;6.30;99.90;;;;;;5025478;28;20202;-75
2021/05/02 03:06:46;;;;;;;6.47;2.10;;;6.30;99.90;;;;;;5025245;28;20272;-76
2021/05/02 03:09:16;;;;;;;7.83;2.20;;;6.30;99.90;;;;;;5025846;28;20688;-76
2021/05/02 03:11:43;;;;;;;5.60;1.50;;;6.30;99.90;;;;;;5025424;28;20206;-75
2021/05/02 03:14:12;;;;;;;3.37;1.63;;;6.40;99.90;;;;;;5025919;28;20207;-76
2021/05/02 03:16:41;;;;;;;5.87;1.90;;;6.40;99.90;;;;;;5024731;28;20242;-77
2021/05/02 03:19:14;;;;;;;6.20;2.17;;;6.40;99.90;;;;;;5025628;28;20206;-76
2021/05/02 03:21:50;;;;;;;6.20;1.87;;;6.40;99.90;;;;;;5025309;28;20199;-76
2021/05/02 03:24:24;;;;;;;6.20;1.80;;;6.50;99.90;;;;;;5025687;28;20317;-76
2021/05/02 03:26:54;;;;;;;5.03;1.87;;;6.40;99.90;;;;;;5024480;28;20264;-75
2021/05/02 03:29:22;;;;;;;4.63;1.60;;;6.40;99.90;;;;;;5025752;28;20222;-77
2021/05/02 03:31:53;;;;;;;4.30;1.80;;;6.40;99.90;;;;;;5025556;28;20781;-77
2021/05/02 03:34:23;;;;;;;6.00;1.97;;;6.40;99.90;;;;;;5025467;28;20854;-75
2021/05/02 03:36:52;;;;;;;5.93;2.30;;;6.40;99.90;;;;;;5025296;28;20202;-77
2021/05/02 03:39:19;;;;;;;6.27;2.17;;;6.40;99.90;;;;;;5025096;28;20669;-76
2021/05/02 03:41:45;;;;;;;4.67;2.07;;;6.50;99.90;;;;;;5025702;28;20214;-76
2021/05/02 03:44:12;;;;;;;4.30;1.90;;;6.50;99.90;;;;;;5026007;28;20342;-75
2021/05/02 03:46:38;;;;;;;2.43;1.60;;;6.60;99.90;;;;;;5024821;28;20202;-76
2021/05/02 03:49:06;;;;;;;5.83;1.80;;;6.60;99.90;;;;;;5025474;28;20296;-77
2021/05/02 03:51:34;;;;;;;4.10;2.00;;;6.60;99.90;;;;;;5025284;28;20293;-76
2021/05/02 03:54:01;;;;;;;7.93;2.50;;;6.60;99.90;;;;;;5024765;28;20203;-76
2021/05/02 03:56:36;;;;;;;7.70;1.87;;;6.60;99.90;;;;;;5025414;28;20214;-76
2021/05/02 03:59:11;;;;;;;3.13;1.70;;;6.60;99.90;;;;;;5024938;28;20207;-77
2021/05/02 04:01:42;;;;;;;5.43;1.97;;;6.70;99.90;;;;;;5023771;28;20844;-76
2021/05/02 04:04:12;;;;;;;2.43;1.37;;;6.60;99.90;;;;;;5025538;28;20198;-76
2021/05/02 04:06:39;;;;;;;3.13;2.03;;;6.60;99.90;;;;;;5024481;28;20202;-77
2021/05/02 04:09:07;;;;;;;2.60;1.57;;;6.60;99.90;;;;;;5023435;28;20245;-76
2021/05/02 04:11:35;;;;;;;6.77;1.70;;;6.50;99.90;;;;;;5024032;28;20207;-77
2021/05/02 04:14:03;;;;;;;4.13;1.90;;;6.50;99.90;;;;;;5024097;28;20218;-76
2021/05/02 04:16:29;;;;;;;4.27;1.77;;;6.50;99.90;;;;;;5024398;28;20210;-74
2021/05/02 04:18:55;;;;;;;4.47;1.60;;;6.50;99.90;;;;;;5024658;28;20253;-75
2021/05/02 04:21:22;;;;;;;2.43;1.50;;;6.60;99.90;;;;;;5023980;28;20199;-76
2021/05/02 04:23:48;;;;;;;6.10;1.73;;;6.50;99.90;;;;;;5024117;28;20249;-76
2021/05/02 04:26:16;;;;;;;5.37;1.43;;;6.60;99.90;;;;;;5023457;28;20214;-77
2021/05/02 04:28:42;;;;;;;2.93;1.63;;;6.60;99.90;;;;;;5022776;28;20222;-76
2021/05/02 04:31:09;;;;;;;4.43;1.80;;;6.60;99.90;;;;;;5023570;28;20211;-77
2021/05/02 04:33:35;;;;;;;2.00;1.53;;;6.60;99.90;;;;;;5023733;28;20272;-77
2021/05/02 04:36:01;;;;;;;3.30;1.70;;;6.70;99.90;;;;;;5023453;28;20210;-75
2021/05/02 04:38:28;;;;;;;3.77;1.60;;;6.70;99.90;;;;;;5024014;28;20256;-75
2021/05/02 04:40:54;;;;;;;6.17;1.50;;;6.70;99.90;;;;;;5024495;28;20214;-75
2021/05/02 04:43:21;;;;;;;4.30;1.60;;;6.80;99.90;;;;;;5022561;28;20214;-76
2021/05/02 04:45:47;;;;;;;2.87;1.20;;;6.90;99.90;;;;;;5023962;28;20206;-76
2021/05/02 04:48:14;;;;;;;2.53;1.47;;;6.80;99.90;;;;;;5024009;28;20280;-76
2021/05/02 04:50:41;;;;;;;3.90;1.60;;;6.80;99.90;;;;;;5023305;28;20206;-75
2021/05/02 04:53:07;;;;;;;3.13;1.57;;;6.90;99.90;;;;;;5024105;28;20229;-77
2021/05/02 04:55:34;;;;;;;2.53;1.37;;;6.90;99.90;;;;;;5023455;28;20744;-76
2021/05/02 04:58:01;;;;;;;3.30;1.40;;;7.00;99.90;;;;;;5023007;28;20202;-77
2021/05/02 05:00:29;;;;;;;6.13;1.70;;;7.10;99.90;;;;;;5023244;28;20290;-77
2021/05/02 05:02:56;;;;;;;4.70;1.53;;;7.20;99.90;;;;;;5023031;28;20215;-76
2021/05/02 05:05:22;;;;;;;6.70;1.63;;;7.20;99.90;;;;;;5023033;28;20556;-76
2021/05/02 05:07:48;;;;;;;2.20;1.27;;;7.10;99.90;;;;;;5023672;28;20223;-77
2021/05/02 05:10:14;;;;;;;3.07;1.43;;;7.10;99.90;;;;;;5023374;28;20206;-77
2021/05/02 05:12:41;;;;;;;1.97;1.23;;;7.10;99.90;;;;;;5022943;28;20198;-76
2021/05/02 05:15:09;;;;;;;4.20;1.30;;;7.20;99.90;;;;;;5023710;28;20203;-76
2021/05/02 05:17:37;;;;;;;5.87;1.60;;;7.20;99.90;;;;;;5022362;28;20253;-76
2021/05/02 05:20:03;;;;;;;2.37;1.40;;;7.30;99.90;;;;;;5023850;28;20232;-76
2021/05/02 05:22:30;;;;;;;3.57;1.37;;;7.40;99.90;;;;;;5023473;28;20210;-76
2021/05/02 05:24:57;;;;;;;3.87;1.77;;;7.50;99.90;;;;;;5038728;28;20210;-77
2021/05/02 05:27:23;;;;;;;2.40;1.40;;;7.50;99.90;;;;;;5043141;28;20602;-76
2021/05/02 05:29:50;;;;;;;5.37;1.97;;;7.50;99.90;;;;;;5043370;28;20222;-77
2021/05/02 05:32:16;;;;;;;2.73;1.40;;;7.60;99.90;;;;;;5035018;28;20214;-76
2021/05/02 05:34:43;;;;;;;3.13;1.40;;;7.60;99.90;;;;;;5023710;28;20214;-77
2021/05/02 05:37:10;;;;;;;5.93;1.60;;;7.70;99.90;;;;;;5024288;28;20202;-75
2021/05/02 05:39:37;;;;;;;4.27;1.33;;;7.80;99.90;;;;;;5022602;28;20196;-76
2021/05/02 05:42:03;;;;;;;5.30;1.50;;;7.90;99.90;;;;;;5024111;28;20210;-78
2021/05/02 05:44:29;;;;;;;2.53;1.20;;;8.00;99.90;;;;;;5023770;28;20206;-75
2021/05/02 05:46:56;;;;;;;3.07;1.20;;;8.10;99.90;;;;;;5023653;28;20226;-76
2021/05/02 05:49:22;;;;;;;2.43;1.40;;;8.10;99.90;;;;;;5024516;28;20547;-77
2021/05/02 05:51:52;;;;;;;5.03;1.40;;;8.20;99.90;;;;;;5024231;28;20252;-78
2021/05/02 05:54:18;;;;;;;3.37;1.27;;;8.30;99.90;;;;;;5024089;28;20207;-77
2021/05/02 05:56:45;;;;;;;4.10;1.47;;;8.40;99.90;;;;;;5025815;28;20205;-77
2021/05/02 05:59:11;;;;;;;4.13;1.40;;;8.50;99.90;;;;;;5025129;28;20211;-79
2021/05/02 06:01:37;;;;;;;2.23;1.37;;;8.60;99.90;;;;;;5024789;28;20202;-77
2021/05/02 06:04:04;;;;;;;3.27;1.27;;;8.60;99.90;;;;;;5026401;28;20209;-75
2021/05/02 06:06:33;;;;;;;3.00;0.93;;;8.70;99.90;;;;;;5034549;28;20202;-77
2021/05/02 06:09:01;;;;;;;5.70;1.40;;;8.80;99.90;;;;;;5036685;28;20237;-77
2021/05/02 06:11:29;;;;;;;2.67;1.10;;;9.00;99.90;;;;;;5023427;28;20270;-76
2021/05/02 06:13:55;;;;;;;1.73;0.97;;;9.20;99.90;;;;;;5022000;28;20317;-77
2021/05/02 06:16:21;;;;;;;4.10;1.27;;;9.30;99.90;;;;;;5022451;28;20215;-77
2021/05/02 06:18:47;;;;;;;5.00;1.40;;;9.70;99.90;;;;;;5022296;28;20242;-78
2021/05/02 06:21:14;;;;;;;3.13;1.10;;;10.10;99.90;;;;;;5022236;28;20618;-78
2021/05/02 06:23:40;;;;;;;3.80;1.50;;;10.50;99.90;;;;;;5022298;28;20245;-77
2021/05/02 06:26:07;;;;;;;2.70;0.90;;;10.70;99.90;;;;;;5022931;28;20298;-77
2021/05/02 06:28:34;;;;;;;3.80;1.60;;;10.80;99.90;;;;;;5020969;28;20637;-77
2021/05/02 06:31:00;;;;;;;2.50;1.23;;;10.80;99.90;;;;;;5022002;28;20194;-78
2021/05/02 06:33:26;;;;;;;2.57;1.00;;;10.80;99.90;;;;;;5022777;28;20218;-78
2021/05/02 06:35:52;;;;;;;3.67;1.13;;;10.70;99.90;;;;;;5021823;28;20495;-77
2021/05/02 06:38:19;;;;;;;3.23;1.27;;;10.80;99.90;;;;;;5022305;28;20206;-77
2021/05/02 06:40:46;;;;;;;2.13;1.03;;;10.90;99.90;;;;;;5022646;28;20205;-77
2021/05/02 06:43:13;;;;;;;2.53;1.10;;;11.10;99.90;;;;;;5022509;28;20198;-80
2021/05/02 06:45:39;;;;;;;2.80;1.43;;;11.30;99.90;;;;;;5022488;28;20650;-76
2021/05/02 06:48:06;;;;;;;2.93;1.10;;;11.20;99.90;;;;;;5023296;28;20269;-76
2021/05/02 06:50:32;;;;;;;1.33;0.90;;;10.90;99.90;;;;;;5000476;28;20259;-76
2021/05/02 06:52:59;;;;;;;2.93;1.20;;;11.00;99.90;;;;;;5025117;28;20762;-76
2021/05/02 06:55:25;;;;;;;1.50;1.00;;;11.00;99.90;;;;;;5026460;28;20983;-77
2021/05/02 06:57:51;;;;;;;1.83;0.90;;;11.30;99.90;;;;;;5025301;28;20217;-77
2021/05/02 07:00:20;;;;;;;1.97;1.10;;;11.70;99.90;;;;;;5026200;28;20317;-76
2021/05/02 07:02:46;;;;;;;3.90;1.13;;;12.20;99.90;;;;;;5026480;28;20269;-75
2021/05/02 07:05:13;;;;;;;1.33;1.10;;;12.50;99.90;;;;;;5021710;28;20272;-75
2021/05/02 07:07:39;;;;;;;2.97;0.93;;;12.50;99.90;;;;;;5025872;28;20257;-75
2021/05/02 07:10:06;;;;;;;1.70;0.83;;;12.10;99.90;;;;;;5025878;28;20198;-75
2021/05/02 07:12:33;;;;;;;3.57;1.27;;;11.90;99.90;;;;;;5025959;28;20203;-77
2021/05/02 07:14:59;;;;;;;5.47;1.33;;;11.50;99.90;;;;;;5026126;28;20210;-76
2021/05/02 07:17:27;;;;;;;4.07;1.00;;;11.20;99.90;;;;;;5024485;28;20234;-76
2021/05/02 07:19:53;;;;;;;1.90;0.90;;;10.70;99.90;;;;;;5025941;28;20276;-76
2021/05/02 07:22:19;;;;;;;2.27;0.80;;;10.00;99.90;;;;;;5045874;28;20849;-75
2021/05/02 07:24:49;;;;;;;2.50;0.90;;;9.50;99.90;;;;;;5045600;28;20198;-79
2021/05/02 07:27:15;;;;;;;3.37;1.07;;;9.00;99.90;;;;;;5045841;28;20226;-78
2021/05/02 07:29:41;;;;;;;2.53;0.90;;;8.50;99.90;;;;;;5041228;28;20901;-74
2021/05/02 07:32:08;;;;;;;2.40;0.87;;;8.20;99.90;;;;;;5024871;28;20762;-76
2021/05/02 07:34:35;;;;;;;1.30;1.00;;;8.10;99.90;;;;;;5025244;28;20210;-75
2021/05/02 07:37:02;;;;;;;1.10;1.00;;;8.00;99.90;;;;;;5025876;28;20471;-75
2021/05/02 07:39:28;;;;;;;1.50;1.27;;;8.20;99.90;;;;;;5024932;28;20218;-74
2021/05/02 07:41:54;;;;;;;2.83;1.03;;;8.40;99.90;;;;;;5025642;28;20257;-76
2021/05/02 07:44:21;;;;;;;3.87;1.13;;;8.70;99.90;;;;;;5025202;28;20637;-75
2021/05/02 07:46:48;;;;;;;1.10;1.00;;;9.00;99.90;;;;;;5023798;28;20210;-75
2021/05/02 07:49:14;;;;;;;5.80;2.40;;;9.60;99.90;;;;;;5025369;28;20209;-76
2021/05/02 07:51:42;;;;;;;3.07;1.33;;;10.20;99.90;;;;;;5025125;28;20202;-76
2021/05/02 07:54:08;;;;;;;1.63;1.03;;;10.90;99.90;;;;;;5024728;28;20265;-76
2021/05/02 07:56:34;;;;;;;2.67;1.13;;;11.60;99.90;;;;;;5044320;28;20206;-75
2021/05/02 07:59:01;;;;;;;2.03;1.07;;;12.10;99.90;;;;;;5044674;28;20904;-76
2021/05/02 08:01:27;;;;;;;3.17;1.47;;;12.40;99.90;;;;;;5037774;28;20268;-77
2021/05/02 08:03:53;;;;;;;3.60;1.53;;;12.40;99.90;;;;;;5024109;28;20207;-76
2021/05/02 08:06:19;;;;;;;2.30;1.00;;;12.20;99.90;;;;;;5024297;28;20198;-78
2021/05/02 08:08:46;;;;;;;3.43;1.20;;;12.00;99.90;;;;;;5024457;28;20663;-76
2021/05/02 08:11:13;;;;;;;2.17;1.13;;;11.60;99.90;;;;;;5025255;28;20784;-76
2021/05/02 08:13:39;;;;;;;1.50;1.23;;;11.40;99.90;;;;;;5023538;28;20653;-75
2021/05/02 08:16:05;;;;;;;4.03;1.47;;;11.10;99.90;;;;;;5028972;28;20297;-76
2021/05/02 08:18:32;;;;;;;5.73;1.83;;;10.90;99.90;;;;;;5044744;28;20234;-75
2021/05/02 08:20:58;;;;;;;5.43;1.67;;;10.70;99.90;;;;;;5028145;28;20214;-76
2021/05/02 08:23:25;;;;;;;2.70;1.57;;;10.70;99.90;;;;;;5024230;28;20194;-76
2021/05/02 08:25:52;;;;;;;2.30;1.20;;;10.80;99.90;;;;;;5024350;28;20206;-76
2021/05/02 08:28:19;;;;;;;2.90;1.20;;;10.60;99.90;;;;;;5023932;28;20230;-76
2021/05/02 08:30:45;;;;;;;3.63;1.20;;;10.50;99.90;;;;;;5024263;28;20634;-75
2021/05/02 08:33:11;;;;;;;3.43;1.03;;;10.50;99.90;;;;;;5024598;28;20205;-76
2021/05/02 08:35:37;;;;;;;2.73;1.30;;;10.70;99.90;;;;;;5023071;28;20678;-75
2021/05/02 08:38:05;;;;;;;1.10;0.87;;;10.80;99.90;;;;;;5024479;28;20203;-76
2021/05/02 08:40:31;;;;;;;2.23;1.00;;;10.70;99.90;;;;;;5024025;28;20572;-76
2021/05/02 08:43:04;;;;;;;2.27;1.20;;;10.70;99.90;;;;;;5023368;28;20211;-77
2021/05/02 08:45:30;;;;;;;1.70;0.70;;;10.50;99.90;;;;;;5024129;28;20211;-75
2021/05/02 08:47:57;;;;;;;0.80;0.80;;;10.50;99.90;;;;;;5023831;28;20234;-78
2021/05/02 08:50:24;;;;;;;1.10;0.90;;;10.40;99.90;;;;;;5022790;28;20206;-75
2021/05/02 08:52:50;;;;;;;2.30;1.30;;;10.30;99.90;;;;;;5023929;28;20697;-74
2021/05/02 08:55:17;;;;;;;2.57;1.00;;;10.60;99.90;;;;;;5024059;28;20214;-75
2021/05/02 08:57:43;;;;;;;1.87;1.00;;;10.90;99.90;;;;;;5023277;28;20225;-75
2021/05/02 09:00:11;;;;;;;1.77;0.90;;;10.90;99.90;;;;;;5024229;28;20202;-75
2021/05/02 09:02:37;;;;;;;1.80;1.00;;;11.20;99.90;;;;;;5023434;28;20206;-78
2021/05/02 09:05:06;;;;;;;3.13;1.20;;;11.60;99.90;;;;;;5024096;28;20634;-76
2021/05/02 09:07:42;;;;;;;2.53;1.10;;;12.00;99.90;;;;;;5023809;28;20226;-80
2021/05/02 09:10:09;;;;;;;3.10;1.00;;;12.00;99.90;;;;;;5023304;28;20260;-77
2021/05/02 09:12:36;;;;;;;2.17;1.00;;;11.90;99.90;;;;;;5023447;28;20198;-76
2021/05/02 09:15:06;;;;;;;1.70;1.00;;;12.10;99.90;;;;;;5023018;28;20213;-76
2021/05/02 09:17:49;;;;;;;1.53;1.10;;;12.30;99.90;;;;;;5023289;28;20238;-76
2021/05/02 09:20:35;;;;;;;4.83;1.00;;;12.60;99.90;;;;;;5023160;28;20202;-77
2021/05/02 09:23:02;;;;;;;2.70;1.03;;;12.70;99.90;;;;;;5023395;28;20603;-77
2021/05/02 09:25:44;;;;;;;1.93;0.97;;;12.40;99.90;;;;;;5022963;28;20595;-77
2021/05/02 09:28:10;;;;;;;3.17;0.80;;;12.40;99.90;;;;;;5023986;28;20293;-77
2021/05/02 09:30:37;;;;;;;2.27;1.00;;;12.30;99.90;;;;;;5022740;28;20850;-77
2021/05/02 09:33:05;;;;;;;2.90;1.00;;;12.30;99.90;;;;;;5031834;28;20589;-76
2021/05/02 09:35:35;;;;;;;2.00;1.13;;;12.50;99.90;;;;;;5044290;28;20214;-77
2021/05/02 09:38:12;;;;;;;4.47;0.90;;;12.90;99.90;;;;;;5043108;28;20599;-77
2021/05/02 09:40:46;;;;;;;2.23;1.10;;;12.70;99.90;;;;;;5041180;28;20614;-78
2021/05/02 09:43:32;;;;;;;1.30;0.80;;;12.60;99.90;;;;;;5024132;28;20198;-78
2021/05/02 09:46:24;;;;;;;1.87;1.03;;;12.40;99.90;;;;;;5022662;28;20194;-77
2021/05/02 09:49:13;;;;;;;1.33;0.80;;;12.40;99.90;;;;;;5004372;28;20232;-76
2021/05/02 09:51:44;;;;;;;2.20;1.10;;;12.50;99.90;;;;;;5011421;28;20656;-77
2021/05/02 09:54:13;;;;;;;2.37;1.00;;;12.50;99.90;;;;;;5023339;28;20862;-75
2021/05/02 09:56:45;;;;;;;3.50;0.93;;;12.40;99.90;;;;;;5022846;28;20261;-75
2021/05/02 09:59:24;;;;;;;2.20;1.00;;;12.30;99.90;;;;;;5022391;28;20209;-76
2021/05/02 10:02:26;;;;;;;1.80;0.83;;;12.50;99.90;;;;;;5023432;28;20218;-79
2021/05/02 10:04:57;;;;;;;1.37;1.00;;;12.70;99.90;;;;;;5023153;28;20217;-79
2021/05/02 10:07:25;;;;;;;5.07;1.00;;;12.80;99.90;;;;;;5022053;28;20238;-75
2021/05/02 10:09:52;;;;;;;2.33;0.87;;;12.80;99.90;;;;;;5022440;28;20238;-75
2021/05/02 10:12:19;;;;;;;1.87;0.73;;;12.70;99.90;;;;;;5023131;28;20206;-76
2021/05/02 10:14:47;;;;;;;2.50;0.90;;;12.80;99.90;;;;;;5022549;28;20206;-78
2021/05/02 10:17:14;;;;;;;1.23;0.70;;;13.00;99.90;;;;;;5023886;28;20276;-78
2021/05/02 10:19:41;;;;;;;2.27;0.80;;;13.10;99.90;;;;;;5022934;28;20199;-77
2021/05/02 10:22:09;;;;;;;2.17;0.83;;;13.30;99.90;;;;;;5023260;28;20217;-77
2021/05/02 10:24:36;;;;;;;1.50;0.80;;;13.30;99.90;;;;;;5022934;28;20210;-77
2021/05/02 10:27:07;;;;;;;2.10;0.73;;;13.20;99.90;;;;;;5024180;28;20214;-78
2021/05/02 10:29:39;;;;;;;0.93;0.60;;;13.50;99.90;;;;;;5026348;28;20927;-77
2021/05/02 10:32:08;;;;;;;1.87;0.70;;;13.60;99.90;;;;;;5027457;28;20313;-78
2021/05/02 10:34:36;;;;;;;1.50;0.70;;;13.70;99.90;;;;;;5032022;28;20289;-77
2021/05/02 10:37:29;;;;;;;1.43;0.80;;;13.90;99.90;;;;;;5045630;28;20205;-77
2021/05/02 10:39:57;;;;;;;1.33;0.93;;;14.20;99.90;;;;;;5027696;28;20214;-79
2021/05/02 10:42:38;;;;;;;1.77;0.90;;;14.40;99.90;;;;;;5028736;28;20214;-77
2021/05/02 10:45:41;;;;;;;2.20;1.00;;;14.00;99.90;;;;;;5027809;28;20217;-77
2021/05/02 10:48:09;;;;;;;3.07;1.00;;;13.80;99.90;;;;;;5030370;28;20265;-77
2021/05/02 10:50:40;;;;;;;1.40;0.70;;;13.90;99.90;;;;;;5039578;28;20550;-77
2021/05/02 10:53:09;;;;;;;1.03;0.90;;;13.70;99.90;;;;;;5035858;28;20187;-77
2021/05/02 10:55:53;;;;;;;2.50;1.37;;;13.60;99.90;;;;;;5035219;28;20213;-77
2021/05/02 10:58:25;;;;;;;2.43;0.83;;;13.70;99.90;;;;;;5036291;28;20250;-78
2021/05/02 11:00:55;;;;;;;3.27;1.00;;;14.10;99.90;;;;;;5028999;28;20210;-76
2021/05/02 11:04:01;;;;;;;2.57;0.87;;;14.30;99.90;;;;;;5026008;28;20301;-77
2021/05/02 11:07:02;;;;;;;3.90;1.00;;;13.90;99.90;;;;;;5026102;28;20214;-78
2021/05/02 11:09:54;;;;;;;3.30;0.80;;;13.90;99.90;;;;;;5025289;28;20790;-76
2021/05/02 11:12:29;;;;;;;3.90;0.80;;;14.10;99.90;;;;;;5025716;28;20191;-80
2021/05/02 11:14:55;;;;;;;2.20;1.00;;;14.20;99.90;;;;;;5026094;28;20206;-77
2021/05/02 11:17:30;;;;;;;2.37;1.00;;;14.00;99.90;;;;;;5025019;28;20246;-77
2021/05/02 11:19:58;;;;;;;1.37;0.63;;;13.90;99.90;;;;;;5032913;28;20186;-77
2021/05/02 11:22:26;;;;;;;3.13;1.00;;;13.80;99.90;;;;;;5027368;28;20246;-76
2021/05/02 11:24:58;;;;;;;2.77;0.90;;;14.10;99.90;;;;;;5024680;28;20211;-78
2021/05/02 11:27:43;;;;;;;1.47;0.60;;;14.30;99.90;;;;;;5024987;28;20206;-79
2021/05/02 11:30:16;;;;;;;2.20;1.07;;;14.30;99.90;;;;;;5023928;28;20218;-77
2021/05/02 11:32:43;;;;;;;3.23;0.90;;;14.20;99.90;;;;;;5025307;28;20232;-77
2021/05/02 11:35:11;;;;;;;2.40;0.97;;;14.40;99.90;;;;;;5026026;28;20202;-78
2021/05/02 11:37:38;;;;;;;3.13;1.07;;;14.30;99.90;;;;;;5024904;28;20214;-77
2021/05/02 11:40:35;;;;;;;2.53;0.90;;;14.30;99.90;;;;;;5026351;28;20207;-78
2021/05/02 11:43:02;;;;;;;3.00;0.90;;;14.00;99.90;;;;;;5026424;28;20202;-77
2021/05/02 11:45:31;;;;;;;1.67;0.90;;;13.90;99.90;;;;;;5024924;28;20591;-78
2021/05/02 11:47:58;;;;;;;3.10;1.63;;;13.90;99.90;;;;;;5025234;28;20276;-76
2021/05/02 11:50:25;;;;;;;2.63;0.80;;;13.80;99.90;;;;;;5024773;28;20217;-77
2021/05/02 11:52:54;;;;;;;1.23;0.80;;;13.90;99.90;;;;;;5024353;28;20202;-79
2021/05/02 11:55:28;;;;;;;1.20;0.70;;;13.80;99.90;;;;;;5024849;28;20584;-77
2021/05/02 11:57:55;;;;;;;1.30;0.73;;;13.90;99.90;;;;;;5024318;28;20218;-77
2021/05/02 12:00:39;;;;;;;1.37;0.63;;;14.20;99.90;;;;;;5024266;28;20211;-77
2021/05/02 12:03:06;;;;;;;3.00;0.90;;;14.20;99.90;;;;;;5025306;28;20256;-77
2021/05/02 12:05:33;;;;;;;1.83;0.70;;;14.10;99.90;;;;;;5024497;28;20203;-78
2021/05/02 12:08:09;;;;;;;3.20;0.90;;;14.20;99.90;;;;;;5024606;28;20223;-78
2021/05/02 12:10:37;;;;;;;6.03;0.80;;;14.40;99.90;;;;;;5024880;28;20210;-78
2021/05/02 12:13:05;;;;;;;1.43;0.70;;;14.10;99.90;;;;;;5024100;28;20259;-78
2021/05/02 12:15:32;;;;;;;2.70;1.00;;;14.00;99.90;;;;;;5024358;28;20320;-78
2021/05/02 12:17:58;;;;;;;1.10;0.90;;;14.10;99.90;;;;;;5024877;28;20615;-77
2021/05/02 12:20:26;;;;;;;2.10;0.90;;;14.30;99.90;;;;;;5024868;28;20209;-77
2021/05/02 12:22:53;;;;;;;2.73;1.00;;;14.50;99.90;;;;;;5025081;28;20199;-79
2021/05/02 12:25:19;;;;;;;2.10;0.77;;;14.70;99.90;;;;;;5024755;28;20329;-77
2021/05/02 12:27:57;;;;;;;4.20;1.07;;;14.50;99.90;;;;;;5024155;28;20214;-77
2021/05/02 12:30:24;;;;;;;2.10;0.90;;;14.10;99.90;;;;;;5024423;28;20611;-76
2021/05/02 12:32:52;;;;;;;1.73;0.80;;;13.90;99.90;;;;;;5024500;28;20222;-76
2021/05/02 12:35:18;;;;;;;2.97;1.10;;;13.90;99.90;;;;;;5024176;28;20321;-80
2021/05/02 12:37:45;;;;;;;1.80;0.97;;;14.10;99.90;;;;;;5024142;28;20576;-76
2021/05/02 12:40:13;;;;;;;3.50;1.00;;;14.30;99.90;;;;;;5024559;28;20207;-77
2021/05/02 12:42:40;;;;;;;5.50;1.07;;;14.20;99.90;;;;;;5023519;28;20210;-78
2021/05/02 12:45:10;;;;;;;1.93;1.00;;;14.40;99.90;;;;;;5024612;28;20276;-77
2021/05/02 12:47:40;;;;;;;1.07;0.90;;;14.30;99.90;;;;;;5023241;28;20222;-76
2021/05/02 12:50:09;;;;;;;3.73;1.07;;;14.20;99.90;;;;;;5023438;28;20252;-77
2021/05/02 12:52:37;;;;;;;2.80;1.00;;;14.50;99.90;;;;;;5029514;28;20591;-77
2021/05/02 12:55:21;;;;;;;3.00;1.10;;;14.60;99.90;;;;;;5043859;28;20228;-77
2021/05/02 12:57:51;;;;;;;2.23;0.90;;;14.80;99.90;;;;;;5041465;28;20186;-77
2021/05/02 13:00:24;;;;;;;1.93;0.70;;;14.90;99.90;;;;;;5023897;28;20352;-78
2021/05/02 13:02:51;;;;;;;1.27;0.90;;;14.90;99.90;;;;;;5023958;28;20229;-80